createdAt,value
2018-04-26T00:01:45.597Z,15.40
2018-04-26T00:04:14.651Z,15.30
2018-04-26T00:06:42.694Z,15.40
2018-04-26T00:09:10.231Z,15.40
2018-04-26T00:11:37.754Z,15.40
2018-04-26T00:14:05.294Z,15.20
2018-04-26T00:16:32.802Z,15.20
2018-04-26T00:19:00.330Z,15.20
2018-04-26T00:21:27.867Z,15.10
2018-04-26T00:23:55.400Z,15.10
2018-04-26T00:26:22.923Z,15.10
2018-04-26T00:28:50.916Z,15.20
2018-04-26T00:31:18.431Z,15.20
2018-04-26T00:33:45.948Z,15.00
2018-04-26T00:36:25.143Z,15.10
2018-04-26T00:42:13.837Z,14.90
2018-04-26T00:44:41.355Z,14.80
2018-04-26T00:47:08.943Z,14.70
2018-04-26T00:49:37.731Z,14.60
2018-04-26T00:52:05.292Z,14.70
2018-04-26T00:54:32.924Z,14.60
2018-04-26T00:57:01.228Z,14.80
2018-04-26T00:59:28.746Z,14.70
2018-04-26T01:01:56.259Z,14.70
2018-04-26T01:04:23.801Z,14.70
2018-04-26T01:06:51.343Z,14.70
2018-04-26T01:09:19.627Z,14.60
2018-04-26T01:11:47.526Z,14.60
2018-04-26T01:14:17.236Z,14.60
2018-04-26T01:16:44.762Z,14.60
2018-04-26T01:19:12.327Z,14.70
2018-04-26T01:21:39.959Z,14.60
2018-04-26T01:24:07.482Z,14.60
2018-04-26T01:26:35.043Z,14.60
2018-04-26T01:29:02.561Z,14.60
2018-04-26T01:31:30.066Z,14.70
2018-04-26T01:33:57.908Z,14.70
2018-04-26T01:36:37.264Z,14.60
2018-04-26T01:39:04.817Z,14.60
2018-04-26T01:41:32.331Z,14.60
2018-04-26T01:44:00.635Z,14.60
2018-04-26T01:46:28.201Z,14.60
2018-04-26T01:48:55.722Z,14.50
2018-04-26T01:51:23.867Z,14.50
2018-04-26T01:53:52.114Z,14.60
2018-04-26T01:56:19.628Z,14.60
2018-04-26T01:58:47.138Z,14.50
2018-04-26T02:01:15.748Z,14.40
2018-04-26T02:03:43.272Z,14.40
2018-04-26T02:06:10.847Z,14.30
2018-04-26T02:08:38.384Z,14.20
2018-04-26T02:11:05.886Z,14.20
2018-04-26T02:13:33.416Z,14.20
2018-04-26T02:16:01.287Z,14.20
2018-04-26T02:18:28.834Z,14.20
2018-04-26T02:20:56.363Z,14.20
2018-04-26T02:23:23.962Z,14.20
2018-04-26T02:25:51.475Z,14.30
2018-04-26T02:28:19.002Z,14.10
2018-04-26T02:30:46.555Z,14.20
2018-04-26T02:33:15.509Z,14.00
2018-04-26T02:35:43.018Z,14.00
2018-04-26T02:38:11.791Z,13.90
2018-04-26T02:40:39.305Z,13.80
2018-04-26T02:43:06.815Z,13.90
2018-04-26T02:45:34.387Z,13.80
2018-04-26T02:48:02.667Z,13.80
2018-04-26T02:50:30.179Z,13.80
2018-04-26T02:52:58.406Z,13.70
2018-04-26T02:55:25.938Z,13.60
2018-04-26T02:57:54.247Z,13.40
2018-04-26T03:00:22.238Z,13.40
2018-04-26T03:02:49.774Z,13.20
2018-04-26T03:05:17.297Z,13.20
2018-04-26T03:07:44.964Z,13.10
2018-04-26T03:10:12.488Z,13.20
2018-04-26T03:12:40.084Z,13.20
2018-04-26T03:15:07.571Z,13.20
2018-04-26T03:17:35.095Z,13.20
2018-04-26T03:20:02.615Z,13.30
2018-04-26T03:22:30.485Z,13.20
2018-04-26T03:24:58.030Z,13.40
2018-04-26T03:27:25.571Z,13.40
2018-04-26T03:29:53.134Z,13.40
2018-04-26T03:32:20.687Z,13.40
2018-04-26T03:34:48.240Z,13.30
2018-04-26T03:37:16.491Z,13.40
2018-04-26T03:39:44.019Z,13.30
2018-04-26T03:42:11.542Z,13.30
2018-04-26T03:44:39.374Z,13.30
2018-04-26T03:47:06.894Z,13.40
2018-04-26T03:49:34.413Z,13.40
2018-04-26T03:52:02.730Z,13.30
2018-04-26T03:54:31.141Z,13.30
2018-04-26T03:56:58.647Z,13.30
2018-04-26T03:59:26.173Z,13.40
2018-04-26T04:02:05.534Z,13.20
2018-04-26T04:04:44.822Z,13.20
2018-04-26T04:07:12.395Z,13.00
2018-04-26T04:09:40.677Z,12.80
2018-04-26T04:12:08.992Z,12.70
2018-04-26T04:14:36.507Z,12.70
2018-04-26T04:17:04.030Z,12.60
2018-04-26T04:19:31.568Z,12.60
2018-04-26T04:21:59.106Z,12.50
2018-04-26T04:24:26.639Z,12.60
2018-04-26T04:26:54.198Z,12.50
2018-04-26T04:29:21.714Z,12.40
2018-04-26T04:31:49.282Z,12.30
2018-04-26T04:34:16.834Z,12.30
2018-04-26T04:36:44.379Z,12.40
2018-04-26T04:39:11.939Z,12.30
2018-04-26T04:41:39.529Z,12.20
2018-04-26T04:44:07.046Z,12.30
2018-04-26T04:46:34.558Z,12.20
2018-04-26T04:49:02.625Z,12.20
2018-04-26T04:51:30.217Z,12.10
2018-04-26T04:53:58.523Z,12.10
2018-04-26T04:56:26.469Z,12.10
2018-04-26T04:58:53.983Z,12.10
2018-04-26T05:01:21.507Z,12.20
2018-04-26T05:03:49.043Z,12.10
2018-04-26T05:06:16.575Z,12.10
2018-04-26T05:08:44.875Z,11.90
2018-04-26T05:11:12.644Z,11.90
2018-04-26T05:13:40.201Z,11.80
2018-04-26T05:16:07.730Z,11.70
2018-04-26T05:18:35.267Z,11.60
2018-04-26T05:21:02.795Z,11.50
2018-04-26T05:23:30.307Z,11.50
2018-04-26T05:25:58.630Z,11.50
2018-04-26T05:28:26.165Z,11.50
2018-04-26T05:30:53.695Z,11.50
2018-04-26T05:33:21.295Z,11.50
2018-04-26T05:35:48.842Z,11.40
2018-04-26T05:38:16.378Z,11.30
2018-04-26T05:40:44.703Z,11.00
2018-04-26T05:43:12.209Z,11.00
2018-04-26T05:45:39.759Z,10.90
2018-04-26T05:48:07.333Z,10.80
2018-04-26T05:50:35.641Z,10.80
2018-04-26T05:53:03.219Z,10.70
2018-04-26T05:55:31.194Z,10.80
2018-04-26T05:58:00.249Z,10.90
2018-04-26T06:00:28.549Z,11.00
2018-04-26T06:02:56.090Z,11.00
2018-04-26T06:05:23.643Z,11.10
2018-04-26T06:07:51.186Z,11.00
2018-04-26T06:10:19.501Z,11.00
2018-04-26T06:12:47.054Z,10.90
2018-04-26T06:15:16.570Z,11.00
2018-04-26T06:17:44.614Z,11.00
2018-04-26T06:20:12.726Z,11.00
2018-04-26T06:22:40.253Z,11.00
2018-04-26T06:25:07.828Z,11.20
2018-04-26T06:27:35.392Z,11.00
2018-04-26T06:30:02.917Z,11.00
2018-04-26T06:32:30.454Z,10.90
2018-04-26T06:34:59.387Z,10.90
2018-04-26T06:37:26.928Z,10.90
2018-04-26T06:39:54.813Z,11.00
2018-04-26T06:42:22.417Z,10.80
2018-04-26T06:44:50.623Z,10.80
2018-04-26T06:47:19.010Z,10.90
2018-04-26T06:49:46.527Z,10.90
2018-04-26T06:52:16.292Z,11.00
2018-04-26T06:54:43.863Z,11.00
2018-04-26T06:57:11.418Z,11.10
2018-04-26T06:59:39.463Z,11.30
2018-04-26T07:02:07.950Z,11.90
2018-04-26T07:04:35.479Z,11.90
2018-04-26T07:07:03.037Z,12.20
2018-04-26T07:09:30.577Z,12.10
2018-04-26T07:11:58.159Z,12.30
2018-04-26T07:14:25.620Z,12.30
2018-04-26T07:16:53.214Z,12.40
2018-04-26T07:19:20.694Z,12.30
2018-04-26T07:21:48.275Z,12.00
2018-04-26T07:24:16.761Z,11.80
2018-04-26T07:26:44.280Z,11.60
2018-04-26T07:29:11.799Z,11.50
2018-04-26T07:31:40.302Z,11.30
2018-04-26T07:34:07.814Z,11.30
2018-04-26T07:36:35.326Z,11.40
2018-04-26T07:39:03.350Z,11.50
2018-04-26T07:41:30.868Z,11.60
2018-04-26T07:43:58.403Z,11.60
2018-04-26T07:46:26.426Z,11.70
2018-04-26T07:48:53.951Z,11.70
2018-04-26T07:51:21.454Z,11.80
2018-04-26T07:53:48.991Z,11.70
2018-04-26T07:56:16.502Z,11.70
2018-04-26T07:58:44.019Z,11.90
2018-04-26T08:01:12.140Z,11.90
2018-04-26T08:03:39.650Z,11.90
2018-04-26T08:06:07.172Z,12.10
2018-04-26T08:08:34.742Z,12.10
2018-04-26T08:11:02.255Z,12.20
2018-04-26T08:13:30.567Z,12.20
2018-04-26T08:15:58.096Z,12.10
2018-04-26T08:18:25.610Z,12.30
2018-04-26T08:20:53.133Z,12.30
2018-04-26T08:23:20.671Z,12.20
2018-04-26T08:25:48.204Z,12.50
2018-04-26T08:28:16.441Z,12.70
2018-04-26T08:30:44.071Z,12.80
2018-04-26T08:33:11.582Z,12.90
2018-04-26T08:35:39.109Z,13.00
2018-04-26T08:38:07.149Z,13.20
2018-04-26T08:40:34.684Z,13.00
2018-04-26T08:43:02.203Z,13.10
2018-04-26T08:45:29.783Z,13.10
2018-04-26T08:47:57.296Z,13.40
2018-04-26T08:50:24.908Z,13.30
2018-04-26T08:52:52.750Z,13.60
2018-04-26T08:55:20.277Z,13.90
2018-04-26T08:57:47.791Z,13.80
2018-04-26T09:00:16.607Z,13.70
2018-04-26T09:02:44.618Z,13.70
2018-04-26T09:05:12.159Z,13.70
2018-04-26T09:07:39.711Z,13.50
2018-04-26T09:10:07.248Z,13.50
2018-04-26T09:12:34.782Z,13.60
2018-04-26T09:15:02.385Z,13.90
2018-04-26T09:17:29.917Z,13.80
2018-04-26T09:19:58.218Z,13.70
2018-04-26T09:22:25.773Z,13.60
2018-04-26T09:24:53.359Z,13.70
2018-04-26T09:27:21.327Z,13.60
2018-04-26T09:29:48.939Z,13.60
2018-04-26T09:32:16.490Z,13.60
2018-04-26T09:34:44.019Z,13.50
2018-04-26T09:37:12.181Z,13.40
2018-04-26T09:39:39.716Z,13.30
2018-04-26T09:42:07.263Z,13.50
2018-04-26T09:44:35.582Z,13.60
2018-04-26T09:47:03.463Z,13.50
2018-04-26T09:49:32.025Z,13.80
2018-04-26T09:52:00.861Z,13.80
2018-04-26T09:54:28.476Z,13.60
2018-04-26T09:56:56.024Z,13.40
2018-04-26T09:59:24.010Z,13.30
2018-04-26T10:01:57.656Z,13.20
2018-04-26T10:04:26.675Z,12.80
2018-04-26T10:06:59.107Z,12.80
2018-04-26T10:09:26.643Z,12.90
2018-04-26T10:11:54.185Z,12.90
2018-04-26T10:14:21.698Z,12.90
2018-04-26T10:16:49.210Z,12.80
2018-04-26T10:19:16.947Z,12.80
2018-04-26T10:21:44.483Z,12.70
2018-04-26T10:24:11.999Z,12.80
2018-04-26T10:26:39.672Z,13.00
2018-04-26T10:29:07.217Z,13.20
2018-04-26T10:31:34.732Z,13.30
2018-04-26T10:34:02.343Z,13.30
2018-04-26T10:36:29.866Z,13.20
2018-04-26T10:38:57.427Z,13.30
2018-04-26T10:41:25.274Z,13.30
2018-04-26T10:43:53.562Z,13.60
2018-04-26T10:46:21.090Z,13.60
2018-04-26T10:48:49.399Z,13.80
2018-04-26T10:51:16.906Z,13.80
2018-04-26T10:53:44.431Z,13.90
2018-04-26T10:56:13.758Z,13.90
2018-04-26T10:58:41.283Z,13.80
2018-04-26T11:01:08.811Z,13.80
2018-04-26T11:03:37.443Z,13.70
2018-04-26T11:06:05.703Z,13.70
2018-04-26T11:08:33.243Z,13.70
2018-04-26T11:11:00.810Z,13.70
2018-04-26T11:13:28.328Z,13.70
2018-04-26T11:15:56.648Z,13.20
2018-04-26T11:18:24.211Z,13.10
2018-04-26T11:20:51.755Z,13.00
2018-04-26T11:23:19.270Z,13.00
2018-04-26T11:25:47.404Z,12.80
2018-04-26T11:28:16.410Z,12.80
2018-04-26T11:30:43.949Z,12.70
2018-04-26T11:33:11.538Z,12.60
2018-04-26T11:35:39.374Z,12.70
2018-04-26T11:38:06.924Z,12.80
2018-04-26T11:40:34.539Z,13.00
2018-04-26T11:43:02.058Z,13.00
2018-04-26T11:45:29.596Z,13.20
2018-04-26T11:47:57.482Z,13.30
2018-04-26T11:50:25.004Z,13.30
2018-04-26T11:52:53.337Z,13.60
2018-04-26T11:55:20.927Z,13.50
2018-04-26T11:57:48.446Z,13.40
2018-04-26T12:00:16.762Z,13.40
2018-04-26T12:02:44.424Z,13.50
2018-04-26T12:05:11.939Z,13.50
2018-04-26T12:07:40.146Z,13.50
2018-04-26T12:10:08.313Z,13.60
2018-04-26T12:12:35.885Z,13.60
2018-04-26T12:15:03.424Z,13.70
2018-04-26T12:17:31.007Z,13.60
2018-04-26T12:19:58.816Z,13.60
2018-04-26T12:22:26.359Z,13.80
2018-04-26T12:24:53.935Z,13.80
2018-04-26T12:27:21.555Z,13.80
2018-04-26T12:29:49.071Z,13.70
2018-04-26T12:32:17.131Z,13.80
2018-04-26T12:34:44.648Z,13.80
2018-04-26T12:37:13.911Z,13.60
2018-04-26T12:39:41.460Z,13.60
2018-04-26T12:42:08.989Z,13.50
2018-04-26T12:44:36.518Z,13.40
2018-04-26T12:47:04.843Z,13.40
2018-04-26T12:49:32.362Z,13.40
2018-04-26T12:52:00.664Z,13.60
2018-04-26T12:54:28.262Z,13.50
2018-04-26T12:56:55.771Z,13.60
2018-04-26T12:59:23.292Z,13.40
2018-04-26T13:01:50.858Z,13.40
2018-04-26T13:04:18.374Z,13.50
2018-04-26T13:06:45.950Z,13.40
2018-04-26T13:09:15.751Z,13.60
2018-04-26T13:11:43.296Z,13.80
2018-04-26T13:14:10.849Z,14.00
2018-04-26T13:16:38.459Z,13.90
2018-04-26T13:19:05.990Z,13.90
2018-04-26T13:21:33.522Z,13.70
2018-04-26T13:24:01.100Z,13.70
2018-04-26T13:26:28.625Z,13.60
2018-04-26T13:28:56.155Z,13.70
2018-04-26T13:31:23.736Z,13.80
2018-04-26T13:33:52.034Z,13.80
2018-04-26T13:36:19.594Z,13.80
2018-04-26T13:38:47.162Z,13.90
2018-04-26T13:41:16.474Z,14.00
2018-04-26T13:43:44.006Z,14.20
2018-04-26T13:46:11.605Z,14.40
2018-04-26T13:48:39.127Z,14.40
2018-04-26T13:51:06.743Z,14.30
2018-04-26T13:53:34.294Z,14.30
2018-04-26T13:56:01.823Z,14.50
2018-04-26T13:58:29.359Z,14.70
2018-04-26T14:00:57.047Z,14.90
2018-04-26T14:03:24.612Z,15.20
2018-04-26T14:05:52.936Z,15.20
2018-04-26T14:08:20.528Z,15.00
2018-04-26T14:10:49.920Z,15.10
2018-04-26T14:13:17.443Z,15.00
2018-04-26T14:15:45.035Z,14.80
2018-04-26T14:18:14.244Z,14.70
2018-04-26T14:20:41.770Z,14.60
2018-04-26T14:23:09.480Z,14.40
2018-04-26T14:25:37.911Z,14.60
2018-04-26T14:28:06.298Z,14.50
2018-04-26T14:30:33.876Z,14.50
2018-04-26T14:33:02.439Z,14.40
2018-04-26T14:35:30.728Z,14.40
2018-04-26T14:37:58.276Z,14.40
2018-04-26T14:40:26.567Z,14.60
2018-04-26T14:42:54.083Z,14.60
2018-04-26T14:45:22.026Z,14.90
2018-04-26T14:47:49.541Z,15.00
2018-04-26T14:50:17.829Z,15.00
2018-04-26T14:52:45.374Z,14.90
2018-04-26T14:55:25.289Z,14.90
2018-04-26T15:00:31.405Z,15.00
2018-04-26T15:02:58.973Z,15.00
2018-04-26T15:05:26.571Z,15.00
2018-04-26T15:07:54.107Z,14.90
2018-04-26T15:10:21.640Z,14.90
2018-04-26T15:12:50.964Z,15.00
2018-04-26T15:15:18.614Z,14.80
2018-04-26T15:17:46.111Z,14.80
2018-04-26T15:20:23.824Z,14.80
2018-04-26T15:31:21.389Z,14.80
2018-04-26T15:33:48.904Z,14.60
2018-04-26T15:36:16.428Z,14.60
2018-04-26T15:38:44.028Z,14.70
2018-04-26T15:41:11.554Z,14.60
2018-04-26T15:43:39.086Z,14.70
2018-04-26T15:46:06.636Z,14.80
2018-04-26T15:48:34.151Z,15.00
2018-04-26T15:51:01.663Z,15.20
2018-04-26T15:53:40.934Z,15.20
2018-04-26T15:56:33.003Z,15.00
2018-04-26T15:59:13.554Z,14.60
2018-04-26T16:05:24.532Z,14.80
2018-04-26T16:08:09.652Z,14.80
2018-04-26T16:10:54.932Z,15.00
2018-04-26T16:13:40.894Z,14.90
2018-04-26T16:16:35.140Z,15.00
2018-04-26T16:19:31.399Z,14.90
2018-04-26T16:22:17.447Z,14.80
2018-04-26T16:24:57.306Z,14.90
2018-04-26T16:27:42.386Z,14.90
2018-04-26T16:30:21.722Z,15.00
2018-04-26T16:33:05.235Z,15.10
2018-04-26T16:35:44.634Z,15.00
2018-04-26T16:38:23.851Z,15.00
2018-04-26T16:40:52.132Z,14.90
2018-04-26T16:43:20.418Z,14.90
2018-04-26T16:45:48.037Z,14.80
2018-04-26T16:48:17.187Z,14.70
2018-04-26T16:50:44.696Z,14.70
2018-04-26T16:53:12.471Z,14.70
2018-04-26T16:55:40.762Z,14.80
2018-04-26T16:58:09.046Z,14.80
2018-04-26T17:00:36.607Z,14.80
2018-04-26T17:03:04.161Z,14.80
2018-04-26T17:05:32.499Z,14.50
2018-04-26T17:08:00.054Z,14.40
2018-04-26T17:10:27.583Z,14.40
2018-04-26T17:12:55.100Z,14.40
2018-04-26T17:15:23.547Z,14.30
2018-04-26T17:17:51.015Z,14.20
2018-04-26T17:20:18.561Z,14.10
2018-04-26T17:22:46.138Z,14.00
2018-04-26T17:25:25.938Z,14.10
2018-04-26T17:30:27.614Z,13.90
2018-04-26T17:32:55.128Z,13.90
2018-04-26T17:35:23.409Z,13.80
2018-04-26T17:37:51.735Z,13.80
2018-04-26T17:40:19.283Z,13.80
2018-04-26T17:42:47.647Z,13.50
2018-04-26T17:45:16.564Z,13.50
2018-04-26T17:47:44.138Z,13.50
2018-04-26T17:50:11.983Z,13.50
2018-04-26T17:52:39.560Z,13.50
2018-04-26T17:55:07.117Z,13.40
2018-04-26T17:57:34.764Z,13.30
2018-04-26T18:00:02.331Z,13.20
2018-04-26T18:02:29.903Z,13.10
2018-04-26T18:04:57.461Z,12.90
2018-04-26T18:07:25.016Z,12.90
2018-04-26T18:09:52.550Z,12.90
2018-04-26T18:12:20.095Z,12.90
2018-04-26T18:14:48.082Z,12.90
2018-04-26T18:17:17.077Z,12.90
2018-04-26T18:19:44.651Z,12.90
2018-04-26T18:22:13.957Z,12.80
2018-04-26T18:24:41.546Z,12.70
2018-04-26T18:27:09.223Z,12.70
2018-04-26T18:29:36.879Z,12.80
2018-04-26T18:32:04.501Z,12.70
2018-04-26T18:34:33.215Z,12.60
2018-04-26T18:37:01.253Z,12.70
2018-04-26T18:39:28.779Z,12.70
2018-04-26T18:41:56.309Z,12.70
2018-04-26T18:44:24.631Z,12.70
2018-04-26T18:46:52.165Z,12.70
2018-04-26T18:49:19.696Z,12.70
2018-04-26T18:51:47.998Z,12.70
2018-04-26T18:54:17.717Z,12.70
2018-04-26T18:56:45.267Z,12.60
2018-04-26T18:59:13.762Z,12.60
2018-04-26T19:01:41.294Z,12.40
2018-04-26T19:04:09.571Z,12.40
2018-04-26T19:06:37.886Z,12.40
2018-04-26T19:09:05.427Z,12.40
2018-04-26T19:11:33.043Z,12.40
2018-04-26T19:14:00.591Z,12.40
2018-04-26T19:16:28.142Z,12.40
2018-04-26T19:18:56.450Z,12.30
2018-04-26T19:21:24.366Z,12.30
2018-04-26T19:23:51.949Z,12.30
2018-04-26T19:26:19.483Z,12.20
2018-04-26T19:28:47.043Z,12.30
2018-04-26T19:31:28.647Z,12.40
2018-04-26T19:43:36.475Z,12.40
2018-04-26T19:46:03.987Z,12.10
2018-04-26T19:48:31.511Z,12.20
2018-04-26T19:50:59.063Z,12.20
2018-04-26T19:53:26.636Z,12.20
2018-04-26T19:55:55.007Z,12.10
2018-04-26T19:58:22.564Z,12.10
2018-04-26T20:00:50.092Z,12.00
2018-04-26T20:03:17.859Z,11.90
2018-04-26T20:05:46.289Z,11.90
2018-04-26T20:08:25.778Z,11.90
2018-04-26T20:19:34.151Z,12.00
2018-04-26T20:22:01.797Z,11.50
2018-04-26T20:24:29.315Z,11.50
2018-04-26T20:26:56.899Z,11.50
2018-04-26T20:29:24.435Z,11.40
2018-04-26T20:31:51.984Z,11.50
2018-04-26T20:34:19.552Z,11.50
2018-04-26T20:36:47.062Z,11.60
2018-04-26T20:39:26.048Z,11.60
2018-04-26T20:44:49.175Z,11.50
2018-04-26T20:47:16.704Z,11.40
2018-04-26T20:49:44.985Z,11.30
2018-04-26T20:52:12.645Z,11.30
2018-04-26T20:54:41.053Z,11.30
2018-04-26T20:57:08.626Z,11.30
2018-04-26T20:59:36.178Z,11.30
2018-04-26T21:02:03.858Z,11.40
2018-04-26T21:04:31.386Z,11.40
2018-04-26T21:06:58.962Z,11.50
2018-04-26T21:09:26.489Z,11.50
2018-04-26T21:11:54.032Z,11.60
2018-04-26T21:14:21.572Z,11.60
2018-04-26T21:16:49.095Z,11.60
2018-04-26T21:19:16.607Z,11.60
2018-04-26T21:21:44.903Z,11.60
2018-04-26T21:24:12.423Z,11.60
2018-04-26T21:26:39.954Z,11.60
2018-04-26T21:29:07.802Z,11.60
2018-04-26T21:31:35.321Z,11.70
2018-04-26T21:34:02.857Z,11.50
2018-04-26T21:36:30.416Z,11.50
2018-04-26T21:38:57.935Z,11.50
2018-04-26T21:41:25.450Z,11.50
2018-04-26T21:43:53.764Z,11.30
2018-04-26T21:46:21.278Z,11.30
2018-04-26T21:48:48.799Z,11.30
2018-04-26T21:51:22.510Z,11.20
2018-04-26T21:53:55.802Z,11.10
2018-04-26T21:56:28.954Z,10.90
2018-04-26T21:59:02.227Z,10.90
2018-04-26T22:01:36.051Z,10.80
2018-04-26T22:07:07.800Z,10.80
2018-04-26T22:09:36.098Z,10.70
2018-04-26T22:12:03.616Z,10.70
2018-04-26T22:14:31.155Z,10.60
2018-04-26T22:16:58.708Z,10.60
2018-04-26T22:19:26.238Z,10.60
2018-04-26T22:21:54.650Z,10.60
2018-04-26T22:24:22.245Z,10.50
2018-04-26T22:26:49.710Z,10.50
2018-04-26T22:29:18.692Z,10.50
2018-04-26T22:31:46.198Z,10.50
2018-04-26T22:34:15.517Z,10.40
2018-04-26T22:36:43.071Z,10.40
2018-04-26T22:39:10.602Z,10.40
2018-04-26T22:41:38.125Z,10.40
2018-04-26T22:44:05.688Z,10.20
2018-04-26T22:46:33.995Z,10.10
2018-04-26T22:49:01.531Z,10.10
2018-04-26T22:51:29.866Z,10.10
2018-04-26T22:53:57.399Z,10.10
2018-04-26T22:56:24.925Z,10.00
2018-04-26T22:58:53.239Z,9.80
2018-04-26T23:01:20.751Z,9.80
2018-04-26T23:03:48.285Z,9.80
2018-04-26T23:06:16.466Z,9.80
2018-04-26T23:08:43.991Z,9.70
2018-04-26T23:11:11.507Z,9.70
2018-04-26T23:13:39.366Z,9.60
2018-04-26T23:16:07.648Z,9.70
2018-04-26T23:18:35.930Z,9.60
2018-04-26T23:21:04.249Z,9.60
2018-04-26T23:23:32.656Z,9.60
2018-04-26T23:26:00.430Z,9.50
2018-04-26T23:28:28.762Z,9.50
2018-04-26T23:30:57.492Z,9.60
2018-04-26T23:33:25.074Z,9.50
2018-04-26T23:35:52.838Z,9.40
2018-04-26T23:38:21.287Z,9.30
2018-04-26T23:40:49.603Z,9.20
2018-04-26T23:43:17.269Z,9.20
2018-04-26T23:45:44.782Z,9.10
2018-04-26T23:48:12.296Z,9.10
2018-04-26T23:50:39.846Z,9.20
2018-04-26T23:53:07.363Z,9.20
2018-04-26T23:55:34.871Z,9.20
2018-04-26T23:58:02.498Z,9.20
